sensor_id;sensor_type;location;lat;lon;timestamp;temperature;humidity
2106;DHT22;1059;52.548;13.408;2022-10-22T00:01:38;15.00;99.90
2106;DHT22;1059;52.548;13.408;2022-10-22T00:04:05;15.00;99.90
2106;DHT22;1059;52.548;13.408;2022-10-22T00:06:32;15.00;99.90
2106;DHT22;1059;52.548;13.408;2022-10-22T00:08:59;15.00;99.90
2106;DHT22;1059;52.548;13.408;2022-10-22T00:11:27;15.00;99.90
2106;DHT22;1059;52.548;13.408;2022-10-22T00:13:55;15.00;99.90
2106;DHT22;1059;52.548;13.408;2022-10-22T00:16:21;15.00;99.90
2106;DHT22;1059;52.548;13.408;2022-10-22T00:18:48;15.00;99.90
2106;DHT22;1059;52.548;13.408;2022-10-22T00:21:15;15.00;99.90
2106;DHT22;1059;52.548;13.408;2022-10-22T00:23:42;15.00;99.90
2106;DHT22;1059;52.548;13.408;2022-10-22T00:26:10;15.00;99.90
2106;DHT22;1059;52.548;13.408;2022-10-22T00:28:38;15.00;99.90
2106;DHT22;1059;52.548;13.408;2022-10-22T00:31:05;15.00;99.90
2106;DHT22;1059;52.548;13.408;2022-10-22T00:33:33;15.00;99.90
2106;DHT22;1059;52.548;13.408;2022-10-22T00:35:59;15.00;99.90
2106;DHT22;1059;52.548;13.408;2022-10-22T00:38:26;15.00;99.90
2106;DHT22;1059;52.548;13.408;2022-10-22T00:40:54;15.00;99.90
2106;DHT22;1059;52.548;13.408;2022-10-22T00:43:20;15.00;99.90
2106;DHT22;1059;52.548;13.408;2022-10-22T00:45:49;15.00;99.90
2106;DHT22;1059;52.548;13.408;2022-10-22T00:48:18;15.10;99.90
2106;DHT22;1059;52.548;13.408;2022-10-22T00:50:49;15.00;99.90
2106;DHT22;1059;52.548;13.408;2022-10-22T00:53:21;15.10;99.90
2106;DHT22;1059;52.548;13.408;2022-10-22T00:55:51;15.10;99.90
2106;DHT22;1059;52.548;13.408;2022-10-22T00:58:19;15.10;99.90
2106;DHT22;1059;52.548;13.408;2022-10-22T01:00:49;15.10;99.90
2106;DHT22;1059;52.548;13.408;2022-10-22T01:03:16;15.10;99.90
2106;DHT22;1059;52.548;13.408;2022-10-22T01:05:48;15.10;99.90
2106;DHT22;1059;52.548;13.408;2022-10-22T01:08:23;15.10;99.90
2106;DHT22;1059;52.548;13.408;2022-10-22T01:11:01;15.10;99.90
2106;DHT22;1059;52.548;13.408;2022-10-22T01:13:38;15.10;99.90
2106;DHT22;1059;52.548;13.408;2022-10-22T01:16:18;15.10;99.90
2106;DHT22;1059;52.548;13.408;2022-10-22T01:18:52;15.00;99.90
2106;DHT22;1059;52.548;13.408;2022-10-22T01:21:25;15.00;99.90
2106;DHT22;1059;52.548;13.408;2022-10-22T01:24:30;15.00;99.90
2106;DHT22;1059;52.548;13.408;2022-10-22T01:27:08;14.90;99.90
2106;DHT22;1059;52.548;13.408;2022-10-22T01:29:41;14.90;99.90
2106;DHT22;1059;52.548;13.408;2022-10-22T01:32:13;14.90;99.90
2106;DHT22;1059;52.548;13.408;2022-10-22T01:34:43;14.80;99.90
2106;DHT22;1059;52.548;13.408;2022-10-22T01:37:13;14.90;99.90
2106;DHT22;1059;52.548;13.408;2022-10-22T01:39:42;14.90;99.90
2106;DHT22;1059;52.548;13.408;2022-10-22T01:42:11;14.80;99.90
2106;DHT22;1059;52.548;13.408;2022-10-22T01:44:40;14.80;99.90
2106;DHT22;1059;52.548;13.408;2022-10-22T01:47:14;14.80;99.90
2106;DHT22;1059;52.548;13.408;2022-10-22T01:50:05;14.80;99.90
2106;DHT22;1059;52.548;13.408;2022-10-22T01:52:55;14.80;99.90
2106;DHT22;1059;52.548;13.408;2022-10-22T01:55:27;14.80;99.90
2106;DHT22;1059;52.548;13.408;2022-10-22T01:58:16;14.80;99.90
2106;DHT22;1059;52.548;13.408;2022-10-22T02:00:51;14.80;99.90
2106;DHT22;1059;52.548;13.408;2022-10-22T02:03:24;14.80;99.90
2106;DHT22;1059;52.548;13.408;2022-10-22T02:05:54;14.80;99.90
2106;DHT22;1059;52.548;13.408;2022-10-22T02:08:24;14.80;99.90
2106;DHT22;1059;52.548;13.408;2022-10-22T02:10:53;14.80;99.90
2106;DHT22;1059;52.548;13.408;2022-10-22T02:13:23;14.80;99.90
2106;DHT22;1059;52.548;13.408;2022-10-22T02:15:53;14.70;99.90
2106;DHT22;1059;52.548;13.408;2022-10-22T02:18:25;14.70;99.90
2106;DHT22;1059;52.548;13.408;2022-10-22T02:20:53;14.70;99.90
2106;DHT22;1059;52.548;13.408;2022-10-22T02:23:21;14.60;99.90
2106;DHT22;1059;52.548;13.408;2022-10-22T02:25:54;14.60;99.90
2106;DHT22;1059;52.548;13.408;2022-10-22T02:28:25;14.60;99.90
2106;DHT22;1059;52.548;13.408;2022-10-22T02:31:01;14.60;99.90
2106;DHT22;1059;52.548;13.408;2022-10-22T02:33:34;14.60;99.90
2106;DHT22;1059;52.548;13.408;2022-10-22T02:36:03;14.60;99.90
2106;DHT22;1059;52.548;13.408;2022-10-22T02:38:31;14.60;99.90
2106;DHT22;1059;52.548;13.408;2022-10-22T02:41:00;14.60;99.90
2106;DHT22;1059;52.548;13.408;2022-10-22T02:43:28;14.60;99.90
2106;DHT22;1059;52.548;13.408;2022-10-22T02:45:56;14.60;99.90
2106;DHT22;1059;52.548;13.408;2022-10-22T02:48:23;14.60;99.90
2106;DHT22;1059;52.548;13.408;2022-10-22T02:50:50;14.60;99.90
2106;DHT22;1059;52.548;13.408;2022-10-22T02:53:17;14.60;99.90
2106;DHT22;1059;52.548;13.408;2022-10-22T02:55:43;14.60;99.90
2106;DHT22;1059;52.548;13.408;2022-10-22T02:58:10;14.60;99.90
2106;DHT22;1059;52.548;13.408;2022-10-22T03:00:38;14.60;99.90
2106;DHT22;1059;52.548;13.408;2022-10-22T03:03:06;14.50;99.90
2106;DHT22;1059;52.548;13.408;2022-10-22T03:05:33;14.50;99.90
2106;DHT22;1059;52.548;13.408;2022-10-22T03:08:00;14.50;99.90
2106;DHT22;1059;52.548;13.408;2022-10-22T03:10:27;14.50;99.90
2106;DHT22;1059;52.548;13.408;2022-10-22T03:12:54;14.50;99.90
2106;DHT22;1059;52.548;13.408;2022-10-22T03:15:20;14.50;99.90
2106;DHT22;1059;52.548;13.408;2022-10-22T03:17:47;14.60;99.90
2106;DHT22;1059;52.548;13.408;2022-10-22T03:20:16;14.60;99.90
2106;DHT22;1059;52.548;13.408;2022-10-22T03:22:43;14.60;99.90
2106;DHT22;1059;52.548;13.408;2022-10-22T03:25:12;14.60;99.90
2106;DHT22;1059;52.548;13.408;2022-10-22T03:27:41;14.60;99.90
2106;DHT22;1059;52.548;13.408;2022-10-22T03:30:09;14.60;99.90
2106;DHT22;1059;52.548;13.408;2022-10-22T03:32:36;14.60;99.90
2106;DHT22;1059;52.548;13.408;2022-10-22T03:35:03;14.60;99.90
2106;DHT22;1059;52.548;13.408;2022-10-22T03:37:33;14.60;99.90
2106;DHT22;1059;52.548;13.408;2022-10-22T03:40:00;14.60;99.90
2106;DHT22;1059;52.548;13.408;2022-10-22T03:42:27;14.60;99.90
2106;DHT22;1059;52.548;13.408;2022-10-22T03:44:54;14.50;99.90
2106;DHT22;1059;52.548;13.408;2022-10-22T03:47:21;14.60;99.90
2106;DHT22;1059;52.548;13.408;2022-10-22T03:49:49;14.50;99.90
2106;DHT22;1059;52.548;13.408;2022-10-22T03:52:16;14.60;99.90
2106;DHT22;1059;52.548;13.408;2022-10-22T03:54:44;14.60;99.90
2106;DHT22;1059;52.548;13.408;2022-10-22T03:57:11;14.60;99.90
2106;DHT22;1059;52.548;13.408;2022-10-22T03:59:40;14.60;99.90
2106;DHT22;1059;52.548;13.408;2022-10-22T04:02:08;14.60;99.90
2106;DHT22;1059;52.548;13.408;2022-10-22T04:04:35;14.60;99.90
2106;DHT22;1059;52.548;13.408;2022-10-22T04:07:03;14.60;99.90
2106;DHT22;1059;52.548;13.408;2022-10-22T04:09:30;14.60;99.90
2106;DHT22;1059;52.548;13.408;2022-10-22T04:11:59;14.60;99.90
2106;DHT22;1059;52.548;13.408;2022-10-22T04:14:26;14.60;99.90
2106;DHT22;1059;52.548;13.408;2022-10-22T04:16:53;14.60;99.90
2106;DHT22;1059;52.548;13.408;2022-10-22T04:19:20;14.60;99.90
2106;DHT22;1059;52.548;13.408;2022-10-22T04:21:47;14.60;99.90
2106;DHT22;1059;52.548;13.408;2022-10-22T04:24:15;14.60;99.90
2106;DHT22;1059;52.548;13.408;2022-10-22T04:26:42;14.60;99.90
2106;DHT22;1059;52.548;13.408;2022-10-22T04:29:11;14.60;99.90
2106;DHT22;1059;52.548;13.408;2022-10-22T04:31:38;14.60;99.90
2106;DHT22;1059;52.548;13.408;2022-10-22T04:34:05;14.60;99.90
2106;DHT22;1059;52.548;13.408;2022-10-22T04:36:32;14.60;99.90
2106;DHT22;1059;52.548;13.408;2022-10-22T04:39:00;14.60;99.90
2106;DHT22;1059;52.548;13.408;2022-10-22T04:41:29;14.60;99.90
2106;DHT22;1059;52.548;13.408;2022-10-22T04:43:56;14.60;99.90
2106;DHT22;1059;52.548;13.408;2022-10-22T04:46:28;14.60;99.90
2106;DHT22;1059;52.548;13.408;2022-10-22T04:48:55;14.50;99.90
2106;DHT22;1059;52.548;13.408;2022-10-22T04:51:23;14.50;99.90
2106;DHT22;1059;52.548;13.408;2022-10-22T04:53:50;14.50;99.90
2106;DHT22;1059;52.548;13.408;2022-10-22T04:56:19;14.50;99.90
2106;DHT22;1059;52.548;13.408;2022-10-22T04:58:47;14.50;99.90
2106;DHT22;1059;52.548;13.408;2022-10-22T05:01:17;14.50;99.90
2106;DHT22;1059;52.548;13.408;2022-10-22T05:03:47;14.50;99.90
2106;DHT22;1059;52.548;13.408;2022-10-22T05:06:15;14.50;99.90
2106;DHT22;1059;52.548;13.408;2022-10-22T05:08:42;14.50;99.90
2106;DHT22;1059;52.548;13.408;2022-10-22T05:11:13;14.40;99.90
2106;DHT22;1059;52.548;13.408;2022-10-22T05:13:40;14.40;99.90
2106;DHT22;1059;52.548;13.408;2022-10-22T05:16:08;14.40;99.90
2106;DHT22;1059;52.548;13.408;2022-10-22T05:18:35;14.40;99.90
2106;DHT22;1059;52.548;13.408;2022-10-22T05:21:06;14.40;99.90
2106;DHT22;1059;52.548;13.408;2022-10-22T05:23:34;14.40;99.90
2106;DHT22;1059;52.548;13.408;2022-10-22T05:26:01;14.40;99.90
2106;DHT22;1059;52.548;13.408;2022-10-22T05:28:29;14.30;99.90
2106;DHT22;1059;52.548;13.408;2022-10-22T05:30:57;14.30;99.90
2106;DHT22;1059;52.548;13.408;2022-10-22T05:33:24;14.30;99.90
2106;DHT22;1059;52.548;13.408;2022-10-22T05:35:51;14.30;99.90
2106;DHT22;1059;52.548;13.408;2022-10-22T05:38:20;14.30;99.90
2106;DHT22;1059;52.548;13.408;2022-10-22T05:40:57;14.40;99.90
2106;DHT22;1059;52.548;13.408;2022-10-22T05:43:24;14.30;99.90
2106;DHT22;1059;52.548;13.408;2022-10-22T05:45:51;14.30;99.90
2106;DHT22;1059;52.548;13.408;2022-10-22T05:48:17;14.30;99.90
2106;DHT22;1059;52.548;13.408;2022-10-22T05:50:44;14.30;99.90
2106;DHT22;1059;52.548;13.408;2022-10-22T05:53:15;14.30;99.90
2106;DHT22;1059;52.548;13.408;2022-10-22T05:55:43;14.30;99.90
2106;DHT22;1059;52.548;13.408;2022-10-22T05:58:11;14.30;99.90
2106;DHT22;1059;52.548;13.408;2022-10-22T06:00:39;14.30;99.90
2106;DHT22;1059;52.548;13.408;2022-10-22T06:03:06;14.30;99.90
2106;DHT22;1059;52.548;13.408;2022-10-22T06:05:34;14.30;99.90
2106;DHT22;1059;52.548;13.408;2022-10-22T06:08:01;14.30;99.90
2106;DHT22;1059;52.548;13.408;2022-10-22T06:10:28;14.30;99.90
2106;DHT22;1059;52.548;13.408;2022-10-22T06:12:57;14.30;99.90
2106;DHT22;1059;52.548;13.408;2022-10-22T06:15:26;14.30;99.90
2106;DHT22;1059;52.548;13.408;2022-10-22T06:17:52;14.20;99.90
2106;DHT22;1059;52.548;13.408;2022-10-22T06:20:19;14.20;99.90
2106;DHT22;1059;52.548;13.408;2022-10-22T06:22:46;14.20;99.90
2106;DHT22;1059;52.548;13.408;2022-10-22T06:25:13;14.20;99.90
2106;DHT22;1059;52.548;13.408;2022-10-22T06:27:40;14.30;99.90
2106;DHT22;1059;52.548;13.408;2022-10-22T06:30:09;14.30;99.90
2106;DHT22;1059;52.548;13.408;2022-10-22T06:32:36;14.30;99.90
2106;DHT22;1059;52.548;13.408;2022-10-22T06:35:04;14.30;99.90
2106;DHT22;1059;52.548;13.408;2022-10-22T06:37:31;14.40;99.90
2106;DHT22;1059;52.548;13.408;2022-10-22T06:39:57;14.40;99.90
2106;DHT22;1059;52.548;13.408;2022-10-22T06:42:24;14.40;99.90
2106;DHT22;1059;52.548;13.408;2022-10-22T06:44:51;14.50;99.90
2106;DHT22;1059;52.548;13.408;2022-10-22T06:47:19;14.50;99.90
2106;DHT22;1059;52.548;13.408;2022-10-22T06:49:48;14.50;99.90
2106;DHT22;1059;52.548;13.408;2022-10-22T06:52:15;14.50;99.90
2106;DHT22;1059;52.548;13.408;2022-10-22T06:54:42;14.60;99.90
2106;DHT22;1059;52.548;13.408;2022-10-22T06:57:09;14.60;99.90
2106;DHT22;1059;52.548;13.408;2022-10-22T06:59:36;14.60;99.90
2106;DHT22;1059;52.548;13.408;2022-10-22T07:02:03;14.60;99.90
2106;DHT22;1059;52.548;13.408;2022-10-22T07:04:31;14.60;99.90
2106;DHT22;1059;52.548;13.408;2022-10-22T07:06:58;14.70;99.90
2106;DHT22;1059;52.548;13.408;2022-10-22T07:09:25;14.70;99.90
2106;DHT22;1059;52.548;13.408;2022-10-22T07:11:52;14.70;99.90
2106;DHT22;1059;52.548;13.408;2022-10-22T07:14:18;14.70;99.90
2106;DHT22;1059;52.548;13.408;2022-10-22T07:16:45;14.70;99.90
2106;DHT22;1059;52.548;13.408;2022-10-22T07:19:12;14.70;99.90
2106;DHT22;1059;52.548;13.408;2022-10-22T07:21:41;14.70;99.90
2106;DHT22;1059;52.548;13.408;2022-10-22T07:24:08;14.70;99.90
2106;DHT22;1059;52.548;13.408;2022-10-22T07:26:35;14.80;99.90
2106;DHT22;1059;52.548;13.408;2022-10-22T07:29:03;14.80;99.90
2106;DHT22;1059;52.548;13.408;2022-10-22T07:31:30;14.90;99.90
2106;DHT22;1059;52.548;13.408;2022-10-22T07:33:57;14.90;99.90
2106;DHT22;1059;52.548;13.408;2022-10-22T07:36:24;15.00;99.90
2106;DHT22;1059;52.548;13.408;2022-10-22T07:38:55;15.00;99.90
2106;DHT22;1059;52.548;13.408;2022-10-22T07:41:23;15.00;99.90
2106;DHT22;1059;52.548;13.408;2022-10-22T07:43:49;15.10;99.90
2106;DHT22;1059;52.548;13.408;2022-10-22T07:46:17;15.20;99.90
2106;DHT22;1059;52.548;13.408;2022-10-22T07:48:44;15.20;99.90
2106;DHT22;1059;52.548;13.408;2022-10-22T07:51:11;15.20;99.90
2106;DHT22;1059;52.548;13.408;2022-10-22T07:53:38;15.30;99.90
2106;DHT22;1059;52.548;13.408;2022-10-22T07:56:06;15.40;99.90
2106;DHT22;1059;52.548;13.408;2022-10-22T07:58:34;15.40;99.90
2106;DHT22;1059;52.548;13.408;2022-10-22T08:01:01;15.40;99.90
2106;DHT22;1059;52.548;13.408;2022-10-22T08:03:30;15.50;99.90
2106;DHT22;1059;52.548;13.408;2022-10-22T08:05:57;15.50;99.90
2106;DHT22;1059;52.548;13.408;2022-10-22T08:08:25;15.50;99.90
2106;DHT22;1059;52.548;13.408;2022-10-22T08:10:52;15.50;99.90
2106;DHT22;1059;52.548;13.408;2022-10-22T08:13:20;15.50;99.90
2106;DHT22;1059;52.548;13.408;2022-10-22T08:15:48;15.40;99.90
2106;DHT22;1059;52.548;13.408;2022-10-22T08:18:15;15.30;99.90
2106;DHT22;1059;52.548;13.408;2022-10-22T08:20:42;15.30;99.90
2106;DHT22;1059;52.548;13.408;2022-10-22T08:23:09;15.30;99.90
2106;DHT22;1059;52.548;13.408;2022-10-22T08:25:36;15.30;99.90
2106;DHT22;1059;52.548;13.408;2022-10-22T08:28:03;15.30;99.90
2106;DHT22;1059;52.548;13.408;2022-10-22T08:30:31;15.30;99.90
2106;DHT22;1059;52.548;13.408;2022-10-22T08:32:58;15.30;99.90
2106;DHT22;1059;52.548;13.408;2022-10-22T08:35:25;15.30;99.90
2106;DHT22;1059;52.548;13.408;2022-10-22T08:37:52;15.30;99.90
2106;DHT22;1059;52.548;13.408;2022-10-22T08:40:24;15.40;99.90
2106;DHT22;1059;52.548;13.408;2022-10-22T08:46:08;15.40;99.90
2106;DHT22;1059;52.548;13.408;2022-10-22T08:48:42;15.40;99.90
2106;DHT22;1059;52.548;13.408;2022-10-22T08:51:14;15.50;99.90
2106;DHT22;1059;52.548;13.408;2022-10-22T08:53:48;15.50;99.90
2106;DHT22;1059;52.548;13.408;2022-10-22T08:56:17;15.50;99.90
2106;DHT22;1059;52.548;13.408;2022-10-22T08:58:48;15.60;99.90
2106;DHT22;1059;52.548;13.408;2022-10-22T09:01:32;15.60;99.90
2106;DHT22;1059;52.548;13.408;2022-10-22T09:04:05;15.70;99.90
2106;DHT22;1059;52.548;13.408;2022-10-22T09:06:36;15.70;99.90
2106;DHT22;1059;52.548;13.408;2022-10-22T09:09:09;15.70;99.90
2106;DHT22;1059;52.548;13.408;2022-10-22T09:11:38;15.70;99.90
2106;DHT22;1059;52.548;13.408;2022-10-22T09:14:08;15.70;99.90
2106;DHT22;1059;52.548;13.408;2022-10-22T09:16:49;15.70;99.90
2106;DHT22;1059;52.548;13.408;2022-10-22T09:19:23;15.70;99.90
2106;DHT22;1059;52.548;13.408;2022-10-22T09:21:55;15.70;99.90
2106;DHT22;1059;52.548;13.408;2022-10-22T09:24:35;15.70;99.90
2106;DHT22;1059;52.548;13.408;2022-10-22T09:27:10;15.70;99.90
2106;DHT22;1059;52.548;13.408;2022-10-22T09:29:37;15.70;99.90
2106;DHT22;1059;52.548;13.408;2022-10-22T09:32:05;15.70;99.90
2106;DHT22;1059;52.548;13.408;2022-10-22T09:34:32;15.70;99.90
2106;DHT22;1059;52.548;13.408;2022-10-22T09:37:01;15.70;99.90
2106;DHT22;1059;52.548;13.408;2022-10-22T09:39:31;15.60;99.90
2106;DHT22;1059;52.548;13.408;2022-10-22T09:41:59;15.70;99.90
2106;DHT22;1059;52.548;13.408;2022-10-22T09:44:25;15.70;99.90
2106;DHT22;1059;52.548;13.408;2022-10-22T09:46:52;15.80;99.90
2106;DHT22;1059;52.548;13.408;2022-10-22T09:49:22;15.80;99.90
2106;DHT22;1059;52.548;13.408;2022-10-22T09:51:52;15.90;99.90
2106;DHT22;1059;52.548;13.408;2022-10-22T09:54:21;16.00;99.90
2106;DHT22;1059;52.548;13.408;2022-10-22T09:56:54;16.20;99.90
2106;DHT22;1059;52.548;13.408;2022-10-22T09:59:30;16.20;99.90
2106;DHT22;1059;52.548;13.408;2022-10-22T10:02:05;16.30;99.90
2106;DHT22;1059;52.548;13.408;2022-10-22T10:04:39;16.40;99.90
2106;DHT22;1059;52.548;13.408;2022-10-22T10:07:15;16.30;99.90
2106;DHT22;1059;52.548;13.408;2022-10-22T10:09:42;16.20;99.90
2106;DHT22;1059;52.548;13.408;2022-10-22T10:12:20;16.20;99.90
2106;DHT22;1059;52.548;13.408;2022-10-22T10:14:55;16.20;99.90
2106;DHT22;1059;52.548;13.408;2022-10-22T10:17:30;16.20;99.90
2106;DHT22;1059;52.548;13.408;2022-10-22T10:20:12;16.30;99.90
2106;DHT22;1059;52.548;13.408;2022-10-22T10:22:48;16.20;99.90
2106;DHT22;1059;52.548;13.408;2022-10-22T10:25:36;16.30;99.90
2106;DHT22;1059;52.548;13.408;2022-10-22T10:28:24;16.20;99.90
2106;DHT22;1059;52.548;13.408;2022-10-22T10:30:59;16.20;99.90
2106;DHT22;1059;52.548;13.408;2022-10-22T10:33:38;16.10;99.90
2106;DHT22;1059;52.548;13.408;2022-10-22T10:36:16;16.20;99.90
2106;DHT22;1059;52.548;13.408;2022-10-22T10:38:53;16.20;99.90
2106;DHT22;1059;52.548;13.408;2022-10-22T10:41:30;16.20;99.90
2106;DHT22;1059;52.548;13.408;2022-10-22T10:44:17;16.30;99.90
2106;DHT22;1059;52.548;13.408;2022-10-22T10:46:54;16.40;99.90
2106;DHT22;1059;52.548;13.408;2022-10-22T10:49:26;16.50;99.90
2106;DHT22;1059;52.548;13.408;2022-10-22T10:52:01;16.50;99.90
2106;DHT22;1059;52.548;13.408;2022-10-22T10:54:40;16.50;99.90
2106;DHT22;1059;52.548;13.408;2022-10-22T10:57:16;16.50;99.90
2106;DHT22;1059;52.548;13.408;2022-10-22T10:59:56;16.50;99.90
2106;DHT22;1059;52.548;13.408;2022-10-22T11:02:47;16.60;99.90
2106;DHT22;1059;52.548;13.408;2022-10-22T11:05:26;16.80;99.90
2106;DHT22;1059;52.548;13.408;2022-10-22T11:07:59;16.90;99.90
2106;DHT22;1059;52.548;13.408;2022-10-22T11:10:30;17.00;99.90
2106;DHT22;1059;52.548;13.408;2022-10-22T11:13:04;17.10;99.90
2106;DHT22;1059;52.548;13.408;2022-10-22T11:15:34;17.20;99.90
2106;DHT22;1059;52.548;13.408;2022-10-22T11:18:09;17.30;99.90
2106;DHT22;1059;52.548;13.408;2022-10-22T11:20:46;17.40;99.90
2106;DHT22;1059;52.548;13.408;2022-10-22T11:23:19;17.50;99.90
2106;DHT22;1059;52.548;13.408;2022-10-22T11:25:49;17.60;99.90
2106;DHT22;1059;52.548;13.408;2022-10-22T11:28:20;17.90;99.90
2106;DHT22;1059;52.548;13.408;2022-10-22T11:30:56;18.20;99.90
2106;DHT22;1059;52.548;13.408;2022-10-22T11:33:27;18.50;99.90
2106;DHT22;1059;52.548;13.408;2022-10-22T11:35:57;18.70;99.90
2106;DHT22;1059;52.548;13.408;2022-10-22T11:38:26;18.70;99.90
2106;DHT22;1059;52.548;13.408;2022-10-22T11:40:57;18.90;99.90
2106;DHT22;1059;52.548;13.408;2022-10-22T11:43:30;19.10;99.90
2106;DHT22;1059;52.548;13.408;2022-10-22T11:46:07;19.30;99.90
2106;DHT22;1059;52.548;13.408;2022-10-22T11:48:37;19.30;99.90
2106;DHT22;1059;52.548;13.408;2022-10-22T11:54:29;19.80;99.90
2106;DHT22;1059;52.548;13.408;2022-10-22T11:57:16;20.30;99.90
2106;DHT22;1059;52.548;13.408;2022-10-22T11:59:48;20.40;99.90
2106;DHT22;1059;52.548;13.408;2022-10-22T12:02:40;20.70;99.90
2106;DHT22;1059;52.548;13.408;2022-10-22T12:05:19;21.20;99.90
2106;DHT22;1059;52.548;13.408;2022-10-22T12:08:00;21.70;99.90
2106;DHT22;1059;52.548;13.408;2022-10-22T12:10:48;21.80;99.90
2106;DHT22;1059;52.548;13.408;2022-10-22T12:13:21;22.30;99.90
2106;DHT22;1059;52.548;13.408;2022-10-22T12:15:52;22.30;99.90
2106;DHT22;1059;52.548;13.408;2022-10-22T12:18:22;22.80;99.90
2106;DHT22;1059;52.548;13.408;2022-10-22T12:20:51;23.30;99.90
2106;DHT22;1059;52.548;13.408;2022-10-22T12:23:20;23.80;99.90
2106;DHT22;1059;52.548;13.408;2022-10-22T12:25:51;24.40;99.90
2106;DHT22;1059;52.548;13.408;2022-10-22T12:28:18;24.80;99.90
2106;DHT22;1059;52.548;13.408;2022-10-22T12:30:46;24.50;99.90
2106;DHT22;1059;52.548;13.408;2022-10-22T12:33:18;24.30;99.90
2106;DHT22;1059;52.548;13.408;2022-10-22T12:35:46;24.80;99.90
2106;DHT22;1059;52.548;13.408;2022-10-22T12:38:17;25.60;99.90
2106;DHT22;1059;52.548;13.408;2022-10-22T12:40:46;26.40;99.90
2106;DHT22;1059;52.548;13.408;2022-10-22T12:43:16;27.20;99.90
2106;DHT22;1059;52.548;13.408;2022-10-22T12:45:45;27.50;99.90
2106;DHT22;1059;52.548;13.408;2022-10-22T12:48:16;27.50;99.90
2106;DHT22;1059;52.548;13.408;2022-10-22T12:50:47;27.70;99.90
2106;DHT22;1059;52.548;13.408;2022-10-22T12:53:17;27.50;99.90
2106;DHT22;1059;52.548;13.408;2022-10-22T12:55:45;27.40;99.90
2106;DHT22;1059;52.548;13.408;2022-10-22T12:58:18;27.90;99.90
2106;DHT22;1059;52.548;13.408;2022-10-22T13:00:46;27.80;99.90
2106;DHT22;1059;52.548;13.408;2022-10-22T13:03:25;27.60;99.90
2106;DHT22;1059;52.548;13.408;2022-10-22T13:05:52;27.60;99.90
2106;DHT22;1059;52.548;13.408;2022-10-22T13:08:22;27.90;99.90
2106;DHT22;1059;52.548;13.408;2022-10-22T13:10:50;27.90;99.90
2106;DHT22;1059;52.548;13.408;2022-10-22T13:13:36;27.70;99.90
2106;DHT22;1059;52.548;13.408;2022-10-22T13:16:15;27.40;99.90
2106;DHT22;1059;52.548;13.408;2022-10-22T13:18:43;26.20;99.90
2106;DHT22;1059;52.548;13.408;2022-10-22T13:21:24;25.80;99.90
2106;DHT22;1059;52.548;13.408;2022-10-22T13:23:53;25.30;99.90
2106;DHT22;1059;52.548;13.408;2022-10-22T13:26:20;24.80;99.90
2106;DHT22;1059;52.548;13.408;2022-10-22T13:28:53;24.00;99.90
2106;DHT22;1059;52.548;13.408;2022-10-22T13:31:23;24.00;99.90
2106;DHT22;1059;52.548;13.408;2022-10-22T13:33:52;24.20;99.90
2106;DHT22;1059;52.548;13.408;2022-10-22T13:36:21;24.90;99.90
2106;DHT22;1059;52.548;13.408;2022-10-22T13:38:47;25.30;99.90
2106;DHT22;1059;52.548;13.408;2022-10-22T13:41:19;25.70;99.90
2106;DHT22;1059;52.548;13.408;2022-10-22T13:43:46;25.60;99.90
2106;DHT22;1059;52.548;13.408;2022-10-22T13:46:15;26.20;99.90
2106;DHT22;1059;52.548;13.408;2022-10-22T13:48:43;26.70;99.90
2106;DHT22;1059;52.548;13.408;2022-10-22T13:51:14;27.10;99.90
2106;DHT22;1059;52.548;13.408;2022-10-22T13:53:41;27.50;99.90
2106;DHT22;1059;52.548;13.408;2022-10-22T13:56:12;27.40;99.90
2106;DHT22;1059;52.548;13.408;2022-10-22T13:58:40;27.70;99.90
2106;DHT22;1059;52.548;13.408;2022-10-22T14:01:15;27.90;99.90
2106;DHT22;1059;52.548;13.408;2022-10-22T14:03:44;27.70;99.90
2106;DHT22;1059;52.548;13.408;2022-10-22T14:06:12;27.20;99.90
2106;DHT22;1059;52.548;13.408;2022-10-22T14:08:40;26.90;99.90
2106;DHT22;1059;52.548;13.408;2022-10-22T14:11:09;26.50;99.90
2106;DHT22;1059;52.548;13.408;2022-10-22T14:13:36;26.00;99.90
2106;DHT22;1059;52.548;13.408;2022-10-22T14:16:04;25.70;99.90
2106;DHT22;1059;52.548;13.408;2022-10-22T14:18:34;25.40;99.90
2106;DHT22;1059;52.548;13.408;2022-10-22T14:21:03;25.10;99.90
2106;DHT22;1059;52.548;13.408;2022-10-22T14:23:34;25.40;99.90
2106;DHT22;1059;52.548;13.408;2022-10-22T14:26:02;25.60;99.90
2106;DHT22;1059;52.548;13.408;2022-10-22T14:28:32;25.40;99.90
2106;DHT22;1059;52.548;13.408;2022-10-22T14:30:58;25.20;99.90
2106;DHT22;1059;52.548;13.408;2022-10-22T14:33:27;25.30;99.90
2106;DHT22;1059;52.548;13.408;2022-10-22T14:35:56;25.20;99.90
2106;DHT22;1059;52.548;13.408;2022-10-22T14:38:23;25.10;99.90
2106;DHT22;1059;52.548;13.408;2022-10-22T14:40:50;25.00;99.90
2106;DHT22;1059;52.548;13.408;2022-10-22T14:43:19;24.70;99.90
2106;DHT22;1059;52.548;13.408;2022-10-22T14:45:47;24.40;99.90
2106;DHT22;1059;52.548;13.408;2022-10-22T14:48:14;23.70;99.90
2106;DHT22;1059;52.548;13.408;2022-10-22T14:50:41;23.20;99.90
2106;DHT22;1059;52.548;13.408;2022-10-22T14:53:11;22.80;99.90
2106;DHT22;1059;52.548;13.408;2022-10-22T14:55:38;22.90;99.90
2106;DHT22;1059;52.548;13.408;2022-10-22T14:58:05;22.90;99.90
2106;DHT22;1059;52.548;13.408;2022-10-22T15:00:32;22.90;99.90
2106;DHT22;1059;52.548;13.408;2022-10-22T15:03:01;22.90;99.90
2106;DHT22;1059;52.548;13.408;2022-10-22T15:05:28;22.90;99.90
2106;DHT22;1059;52.548;13.408;2022-10-22T15:07:55;23.00;99.90
2106;DHT22;1059;52.548;13.408;2022-10-22T15:10:25;23.10;99.90
2106;DHT22;1059;52.548;13.408;2022-10-22T15:12:52;23.10;99.90
2106;DHT22;1059;52.548;13.408;2022-10-22T15:15:18;22.90;99.90
2106;DHT22;1059;52.548;13.408;2022-10-22T15:17:45;22.60;99.90
2106;DHT22;1059;52.548;13.408;2022-10-22T15:20:12;22.30;99.90
2106;DHT22;1059;52.548;13.408;2022-10-22T15:22:39;21.80;99.90
2106;DHT22;1059;52.548;13.408;2022-10-22T15:25:07;21.40;99.90
2106;DHT22;1059;52.548;13.408;2022-10-22T15:27:35;21.00;99.90
2106;DHT22;1059;52.548;13.408;2022-10-22T15:30:03;20.80;99.90
2106;DHT22;1059;52.548;13.408;2022-10-22T15:32:30;20.60;99.90
2106;DHT22;1059;52.548;13.408;2022-10-22T15:34:58;20.30;99.90
2106;DHT22;1059;52.548;13.408;2022-10-22T15:37:25;20.20;99.90
2106;DHT22;1059;52.548;13.408;2022-10-22T15:39:52;20.10;99.90
2106;DHT22;1059;52.548;13.408;2022-10-22T15:42:19;20.00;99.90
2106;DHT22;1059;52.548;13.408;2022-10-22T15:44:56;19.90;99.90
2106;DHT22;1059;52.548;13.408;2022-10-22T15:47:24;19.80;99.90
2106;DHT22;1059;52.548;13.408;2022-10-22T15:49:54;19.60;99.90
2106;DHT22;1059;52.548;13.408;2022-10-22T15:52:21;19.60;99.90
2106;DHT22;1059;52.548;13.408;2022-10-22T15:54:48;19.40;99.90
2106;DHT22;1059;52.548;13.408;2022-10-22T15:57:15;19.30;99.90
2106;DHT22;1059;52.548;13.408;2022-10-22T15:59:41;19.20;99.90
2106;DHT22;1059;52.548;13.408;2022-10-22T16:02:10;19.20;99.90
2106;DHT22;1059;52.548;13.408;2022-10-22T16:04:37;19.10;99.90
2106;DHT22;1059;52.548;13.408;2022-10-22T16:07:04;19.10;99.90
2106;DHT22;1059;52.548;13.408;2022-10-22T16:09:31;19.00;99.90